sensor_id;sensor_type;location;lat;lon;timestamp;pressure;altitude;pressure_sealevel;temperature;humidity
44988;BME280;35735;52.226;21.254;2023-01-28T00:02:40;101079.69;;;0.55;100.00
44988;BME280;35735;52.226;21.254;2023-01-28T00:07:41;101077.03;;;0.55;100.00
44988;BME280;35735;52.226;21.254;2023-01-28T00:12:41;101081.28;;;0.51;100.00
44988;BME280;35735;52.226;21.254;2023-01-28T00:17:42;101079.78;;;0.57;100.00
44988;BME280;35735;52.226;21.254;2023-01-28T00:22:47;101078.94;;;0.58;100.00
44988;BME280;35735;52.226;21.254;2023-01-28T00:27:49;101083.00;;;0.67;100.00
44988;BME280;35735;52.226;21.254;2023-01-28T00:32:49;101082.06;;;0.67;100.00
44988;BME280;35735;52.226;21.254;2023-01-28T00:37:50;101078.75;;;0.71;100.00
44988;BME280;35735;52.226;21.254;2023-01-28T00:42:51;101071.44;;;0.67;100.00
44988;BME280;35735;52.226;21.254;2023-01-28T00:47:51;101074.03;;;0.65;100.00
44988;BME280;35735;52.226;21.254;2023-01-28T00:52:52;101079.34;;;0.65;100.00
44988;BME280;35735;52.226;21.254;2023-01-28T00:57:53;101079.28;;;0.64;100.00
44988;BME280;35735;52.226;21.254;2023-01-28T01:02:53;101071.72;;;0.55;100.00
44988;BME280;35735;52.226;21.254;2023-01-28T01:07:54;101080.84;;;0.60;100.00
44988;BME280;35735;52.226;21.254;2023-01-28T01:12:54;101074.69;;;0.61;100.00
44988;BME280;35735;52.226;21.254;2023-01-28T01:17:56;101076.44;;;0.61;100.00
44988;BME280;35735;52.226;21.254;2023-01-28T01:22:56;101067.56;;;0.60;100.00
44988;BME280;35735;52.226;21.254;2023-01-28T01:27:57;101074.63;;;0.60;100.00
44988;BME280;35735;52.226;21.254;2023-01-28T01:32:57;101071.75;;;0.73;100.00
44988;BME280;35735;52.226;21.254;2023-01-28T01:37:58;101072.38;;;0.85;100.00
44988;BME280;35735;52.226;21.254;2023-01-28T01:42:59;101066.91;;;0.82;100.00
44988;BME280;35735;52.226;21.254;2023-01-28T01:48:05;101062.09;;;0.75;100.00
44988;BME280;35735;52.226;21.254;2023-01-28T01:53:15;101073.87;;;0.80;100.00
44988;BME280;35735;52.226;21.254;2023-01-28T01:58:23;101069.50;;;0.99;100.00
44988;BME280;35735;52.226;21.254;2023-01-28T02:04:03;101071.75;;;1.09;100.00
44988;BME280;35735;52.226;21.254;2023-01-28T02:09:40;101074.69;;;1.15;100.00
44988;BME280;35735;52.226;21.254;2023-01-28T02:14:53;101077.50;;;1.18;100.00
44988;BME280;35735;52.226;21.254;2023-01-28T02:20:04;101077.56;;;1.38;100.00
44988;BME280;35735;52.226;21.254;2023-01-28T02:41:56;101074.84;;;1.56;100.00
44988;BME280;35735;52.226;21.254;2023-01-28T02:47:04;101070.97;;;1.29;100.00
44988;BME280;35735;52.226;21.254;2023-01-28T03:03:14;101073.81;;;1.52;100.00
44988;BME280;35735;52.226;21.254;2023-01-28T03:08:18;101080.03;;;1.53;100.00
44988;BME280;35735;52.226;21.254;2023-01-28T03:13:19;101085.19;;;1.50;100.00
44988;BME280;35735;52.226;21.254;2023-01-28T03:18:27;101080.59;;;1.45;100.00
44988;BME280;35735;52.226;21.254;2023-01-28T03:29:01;101087.22;;;1.36;100.00
44988;BME280;35735;52.226;21.254;2023-01-28T03:34:07;101084.41;;;1.33;100.00
44988;BME280;35735;52.226;21.254;2023-01-28T03:39:10;101084.66;;;1.19;100.00
44988;BME280;35735;52.226;21.254;2023-01-28T03:44:10;101084.50;;;1.16;100.00
44988;BME280;35735;52.226;21.254;2023-01-28T03:49:11;101080.72;;;1.11;100.00
44988;BME280;35735;52.226;21.254;2023-01-28T03:54:12;101076.44;;;1.15;100.00
44988;BME280;35735;52.226;21.254;2023-01-28T03:59:12;101088.59;;;1.09;100.00
44988;BME280;35735;52.226;21.254;2023-01-28T04:04:13;101082.06;;;1.03;100.00
44988;BME280;35735;52.226;21.254;2023-01-28T04:09:13;101083.91;;;1.04;100.00
44988;BME280;35735;52.226;21.254;2023-01-28T04:14:14;101082.47;;;1.10;100.00
44988;BME280;35735;52.226;21.254;2023-01-28T04:19:14;101084.03;;;1.07;100.00
44988;BME280;35735;52.226;21.254;2023-01-28T04:24:15;101092.56;;;1.00;100.00
44988;BME280;35735;52.226;21.254;2023-01-28T04:29:16;101083.91;;;1.04;100.00
44988;BME280;35735;52.226;21.254;2023-01-28T04:34:16;101081.91;;;1.00;100.00
44988;BME280;35735;52.226;21.254;2023-01-28T04:39:17;101083.28;;;0.91;100.00
44988;BME280;35735;52.226;21.254;2023-01-28T04:44:17;101084.97;;;0.89;100.00
44988;BME280;35735;52.226;21.254;2023-01-28T04:49:18;101091.19;;;0.90;100.00
44988;BME280;35735;52.226;21.254;2023-01-28T04:54:19;101087.16;;;0.80;100.00
44988;BME280;35735;52.226;21.254;2023-01-28T04:59:19;101088.53;;;0.90;100.00
44988;BME280;35735;52.226;21.254;2023-01-28T05:04:20;101087.78;;;0.92;100.00
44988;BME280;35735;52.226;21.254;2023-01-28T05:09:20;101088.59;;;0.91;100.00
44988;BME280;35735;52.226;21.254;2023-01-28T05:14:23;101099.88;;;1.04;100.00
44988;BME280;35735;52.226;21.254;2023-01-28T05:19:24;101098.19;;;1.06;100.00
44988;BME280;35735;52.226;21.254;2023-01-28T05:24:24;101093.41;;;0.99;100.00
44988;BME280;35735;52.226;21.254;2023-01-28T05:29:25;101089.75;;;0.97;100.00
44988;BME280;35735;52.226;21.254;2023-01-28T05:34:25;101098.56;;;0.96;100.00
44988;BME280;35735;52.226;21.254;2023-01-28T05:39:26;101104.56;;;0.91;100.00
44988;BME280;35735;52.226;21.254;2023-01-28T05:44:27;101108.19;;;0.93;100.00
44988;BME280;35735;52.226;21.254;2023-01-28T05:49:27;101113.31;;;0.89;100.00
44988;BME280;35735;52.226;21.254;2023-01-28T05:54:28;101110.34;;;1.01;100.00
44988;BME280;35735;52.226;21.254;2023-01-28T05:59:28;101107.84;;;1.04;100.00
44988;BME280;35735;52.226;21.254;2023-01-28T06:04:29;101110.41;;;1.02;100.00
44988;BME280;35735;52.226;21.254;2023-01-28T06:09:29;101108.81;;;1.06;100.00
44988;BME280;35735;52.226;21.254;2023-01-28T06:14:30;101112.47;;;1.08;100.00
44988;BME280;35735;52.226;21.254;2023-01-28T06:19:30;101129.94;;;1.03;100.00
44988;BME280;35735;52.226;21.254;2023-01-28T06:24:31;101126.47;;;1.04;100.00
44988;BME280;35735;52.226;21.254;2023-01-28T06:29:31;101130.69;;;1.00;100.00
44988;BME280;35735;52.226;21.254;2023-01-28T06:34:32;101131.28;;;0.95;100.00
44988;BME280;35735;52.226;21.254;2023-01-28T06:39:33;101137.16;;;0.87;100.00
44988;BME280;35735;52.226;21.254;2023-01-28T06:44:33;101140.34;;;0.98;100.00
44988;BME280;35735;52.226;21.254;2023-01-28T06:49:34;101142.09;;;0.98;100.00
44988;BME280;35735;52.226;21.254;2023-01-28T06:54:34;101143.38;;;1.06;100.00
44988;BME280;35735;52.226;21.254;2023-01-28T06:59:35;101150.47;;;1.05;100.00
44988;BME280;35735;52.226;21.254;2023-01-28T07:04:35;101155.97;;;1.10;100.00
44988;BME280;35735;52.226;21.254;2023-01-28T07:09:36;101162.34;;;1.14;100.00
44988;BME280;35735;52.226;21.254;2023-01-28T07:14:36;101157.19;;;1.17;100.00
44988;BME280;35735;52.226;21.254;2023-01-28T07:19:37;101161.47;;;1.13;100.00
44988;BME280;35735;52.226;21.254;2023-01-28T07:24:37;101168.16;;;1.23;100.00
44988;BME280;35735;52.226;21.254;2023-01-28T07:29:38;101158.34;;;1.22;100.00
44988;BME280;35735;52.226;21.254;2023-01-28T07:34:38;101164.28;;;1.16;100.00
44988;BME280;35735;52.226;21.254;2023-01-28T07:39:39;101170.19;;;1.28;100.00
44988;BME280;35735;52.226;21.254;2023-01-28T07:44:40;101170.88;;;1.24;100.00
44988;BME280;35735;52.226;21.254;2023-01-28T07:49:40;101173.94;;;1.14;100.00
44988;BME280;35735;52.226;21.254;2023-01-28T07:54:41;101169.91;;;1.22;100.00
44988;BME280;35735;52.226;21.254;2023-01-28T07:59:41;101172.19;;;1.33;100.00
44988;BME280;35735;52.226;21.254;2023-01-28T08:04:42;101171.19;;;1.31;100.00
44988;BME280;35735;52.226;21.254;2023-01-28T08:09:42;101166.88;;;1.33;100.00
44988;BME280;35735;52.226;21.254;2023-01-28T08:14:43;101170.06;;;1.25;100.00
44988;BME280;35735;52.226;21.254;2023-01-28T08:19:44;101167.03;;;1.36;100.00
44988;BME280;35735;52.226;21.254;2023-01-28T08:24:44;101169.44;;;1.49;100.00
44988;BME280;35735;52.226;21.254;2023-01-28T08:29:47;101169.28;;;1.46;100.00
44988;BME280;35735;52.226;21.254;2023-01-28T08:34:48;101178.31;;;1.32;100.00
44988;BME280;35735;52.226;21.254;2023-01-28T08:39:48;101177.66;;;1.36;100.00
44988;BME280;35735;52.226;21.254;2023-01-28T08:44:49;101174.06;;;1.35;100.00
44988;BME280;35735;52.226;21.254;2023-01-28T08:51:05;101167.44;;;1.45;100.00
44988;BME280;35735;52.226;21.254;2023-01-28T08:56:06;101172.41;;;1.37;100.00
44988;BME280;35735;52.226;21.254;2023-01-28T09:01:07;101173.88;;;1.31;100.00
44988;BME280;35735;52.226;21.254;2023-01-28T09:06:07;101166.00;;;1.34;100.00
44988;BME280;35735;52.226;21.254;2023-01-28T09:11:10;101181.38;;;1.39;100.00
44988;BME280;35735;52.226;21.254;2023-01-28T09:16:11;101181.47;;;1.41;100.00
44988;BME280;35735;52.226;21.254;2023-01-28T09:21:12;101186.16;;;1.46;100.00
44988;BME280;35735;52.226;21.254;2023-01-28T09:26:12;101196.31;;;1.55;100.00
44988;BME280;35735;52.226;21.254;2023-01-28T09:31:15;101203.78;;;1.62;100.00
44988;BME280;35735;52.226;21.254;2023-01-28T09:36:16;101198.78;;;1.51;100.00
44988;BME280;35735;52.226;21.254;2023-01-28T09:41:25;101197.56;;;1.44;100.00
44988;BME280;35735;52.226;21.254;2023-01-28T09:46:32;101201.06;;;1.43;100.00
44988;BME280;35735;52.226;21.254;2023-01-28T09:51:39;101188.59;;;1.42;100.00
44988;BME280;35735;52.226;21.254;2023-01-28T09:56:44;101201.28;;;1.29;100.00
44988;BME280;35735;52.226;21.254;2023-01-28T10:01:56;101195.06;;;1.29;100.00
44988;BME280;35735;52.226;21.254;2023-01-28T10:07:40;101184.19;;;1.24;100.00
44988;BME280;35735;52.226;21.254;2023-01-28T10:29:19;101177.19;;;1.26;100.00
44988;BME280;35735;52.226;21.254;2023-01-28T10:34:22;101180.16;;;1.33;100.00
44988;BME280;35735;52.226;21.254;2023-01-28T10:39:24;101174.44;;;1.25;100.00
44988;BME280;35735;52.226;21.254;2023-01-28T10:44:31;101175.38;;;1.25;100.00
44988;BME280;35735;52.226;21.254;2023-01-28T10:49:40;101175.38;;;1.25;100.00
44988;BME280;35735;52.226;21.254;2023-01-28T10:54:58;101166.31;;;1.22;100.00
44988;BME280;35735;52.226;21.254;2023-01-28T11:00:22;101170.97;;;1.26;100.00
44988;BME280;35735;52.226;21.254;2023-01-28T11:05:27;101160.34;;;1.26;100.00
44988;BME280;35735;52.226;21.254;2023-01-28T11:10:31;101161.22;;;1.26;100.00
44988;BME280;35735;52.226;21.254;2023-01-28T11:15:33;101161.38;;;1.29;100.00
44988;BME280;35735;52.226;21.254;2023-01-28T11:20:37;101157.75;;;1.27;100.00
44988;BME280;35735;52.226;21.254;2023-01-28T11:25:40;101150.75;;;1.29;100.00
44988;BME280;35735;52.226;21.254;2023-01-28T11:30:41;101145.91;;;1.39;100.00
44988;BME280;35735;52.226;21.254;2023-01-28T11:35:54;101152.03;;;1.38;100.00
44988;BME280;35735;52.226;21.254;2023-01-28T11:40:57;101147.53;;;1.37;100.00
44988;BME280;35735;52.226;21.254;2023-01-28T11:46:16;101148.25;;;1.33;100.00
44988;BME280;35735;52.226;21.254;2023-01-28T11:57:51;101143.47;;;1.25;100.00
44988;BME280;35735;52.226;21.254;2023-01-28T12:20:48;101133.25;;;1.35;100.00
44988;BME280;35735;52.226;21.254;2023-01-28T12:26:15;101127.19;;;1.37;100.00
44988;BME280;35735;52.226;21.254;2023-01-28T12:42:50;101127.47;;;1.43;100.00
44988;BME280;35735;52.226;21.254;2023-01-28T12:48:01;101122.94;;;1.41;100.00
44988;BME280;35735;52.226;21.254;2023-01-28T12:53:37;101131.75;;;1.40;100.00
44988;BME280;35735;52.226;21.254;2023-01-28T12:59:11;101120.94;;;1.37;100.00
44988;BME280;35735;52.226;21.254;2023-01-28T13:04:22;101141.25;;;1.35;100.00
44988;BME280;35735;52.226;21.254;2023-01-28T13:09:38;101138.59;;;1.35;100.00
44988;BME280;35735;52.226;21.254;2023-01-28T13:14:47;101132.22;;;1.31;100.00
44988;BME280;35735;52.226;21.254;2023-01-28T13:19:48;101136.69;;;1.32;100.00
44988;BME280;35735;52.226;21.254;2023-01-28T13:24:49;101126.56;;;1.43;100.00
44988;BME280;35735;52.226;21.254;2023-01-28T13:30:18;101131.00;;;1.42;100.00
44988;BME280;35735;52.226;21.254;2023-01-28T13:35:35;101140.69;;;1.42;100.00
44988;BME280;35735;52.226;21.254;2023-01-28T13:40:39;101139.16;;;1.47;100.00
44988;BME280;35735;52.226;21.254;2023-01-28T13:45:40;101139.94;;;1.44;100.00
44988;BME280;35735;52.226;21.254;2023-01-28T13:50:42;101142.84;;;1.49;100.00
44988;BME280;35735;52.226;21.254;2023-01-28T13:55:44;101136.13;;;1.57;100.00
44988;BME280;35735;52.226;21.254;2023-01-28T14:17:34;101132.47;;;1.55;100.00
44988;BME280;35735;52.226;21.254;2023-01-28T14:22:41;101133.47;;;1.57;100.00
44988;BME280;35735;52.226;21.254;2023-01-28T14:27:45;101129.97;;;1.58;100.00
44988;BME280;35735;52.226;21.254;2023-01-28T14:32:52;101127.03;;;1.52;100.00
44988;BME280;35735;52.226;21.254;2023-01-28T14:37:53;101132.03;;;1.46;100.00
44988;BME280;35735;52.226;21.254;2023-01-28T14:42:55;101141.16;;;1.51;100.00
44988;BME280;35735;52.226;21.254;2023-01-28T14:59:52;101144.28;;;1.42;100.00
44988;BME280;35735;52.226;21.254;2023-01-28T15:05:06;101141.16;;;1.51;100.00
44988;BME280;35735;52.226;21.254;2023-01-28T15:10:36;101143.59;;;1.46;100.00
44988;BME280;35735;52.226;21.254;2023-01-28T15:15:45;101139.72;;;1.40;100.00
44988;BME280;35735;52.226;21.254;2023-01-28T15:20:50;101153.56;;;1.33;100.00
44988;BME280;35735;52.226;21.254;2023-01-28T15:25:52;101151.25;;;1.40;100.00
44988;BME280;35735;52.226;21.254;2023-01-28T15:30:53;101151.34;;;1.42;100.00
44988;BME280;35735;52.226;21.254;2023-01-28T15:35:56;101163.66;;;1.40;100.00
44988;BME280;35735;52.226;21.254;2023-01-28T15:41:01;101166.16;;;1.37;100.00
44988;BME280;35735;52.226;21.254;2023-01-28T15:46:10;101164.22;;;1.33;100.00
44988;BME280;35735;52.226;21.254;2023-01-28T15:51:22;101167.19;;;1.39;100.00
44988;BME280;35735;52.226;21.254;2023-01-28T15:56:27;101174.00;;;1.34;100.00
44988;BME280;35735;52.226;21.254;2023-01-28T16:01:28;101181.94;;;1.32;100.00
44988;BME280;35735;52.226;21.254;2023-01-28T16:06:39;101166.16;;;1.37;100.00
44988;BME280;35735;52.226;21.254;2023-01-28T16:11:41;101168.66;;;1.34;100.00
44988;BME280;35735;52.226;21.254;2023-01-28T16:16:45;101170.50;;;1.35;100.00
44988;BME280;35735;52.226;21.254;2023-01-28T16:21:47;101180.41;;;1.37;100.00
44988;BME280;35735;52.226;21.254;2023-01-28T16:27:00;101184.12;;;1.41;100.00
44988;BME280;35735;52.226;21.254;2023-01-28T16:32:03;101184.78;;;1.37;100.00
44988;BME280;35735;52.226;21.254;2023-01-28T16:37:24;101181.00;;;1.32;100.00
44988;BME280;35735;52.226;21.254;2023-01-28T16:42:25;101185.87;;;1.22;100.00
44988;BME280;35735;52.226;21.254;2023-01-28T16:47:33;101178.78;;;1.05;100.00
44988;BME280;35735;52.226;21.254;2023-01-28T16:52:33;101183.44;;;1.09;100.00
44988;BME280;35735;52.226;21.254;2023-01-28T16:57:34;101188.66;;;1.07;100.00
44988;BME280;35735;52.226;21.254;2023-01-28T17:02:35;101188.12;;;1.15;100.00
44988;BME280;35735;52.226;21.254;2023-01-28T17:07:36;101192.22;;;1.08;100.00
44988;BME280;35735;52.226;21.254;2023-01-28T17:12:39;101189.41;;;1.05;100.00
44988;BME280;35735;52.226;21.254;2023-01-28T17:17:40;101185.69;;;1.01;100.00
44988;BME280;35735;52.226;21.254;2023-01-28T17:22:44;101194.47;;;1.00;100.00
44988;BME280;35735;52.226;21.254;2023-01-28T17:27:47;101192.44;;;0.95;100.00
44988;BME280;35735;52.226;21.254;2023-01-28T17:32:48;101183.56;;;0.94;100.00
44988;BME280;35735;52.226;21.254;2023-01-28T17:37:52;101185.28;;;0.93;100.00
44988;BME280;35735;52.226;21.254;2023-01-28T17:42:53;101195.59;;;1.04;100.00
44988;BME280;35735;52.226;21.254;2023-01-28T17:47:54;101195.72;;;1.07;100.00
44988;BME280;35735;52.226;21.254;2023-01-28T17:52:56;101201.34;;;1.13;100.00
44988;BME280;35735;52.226;21.254;2023-01-28T17:57:56;101200.75;;;1.19;100.00
44988;BME280;35735;52.226;21.254;2023-01-28T18:02:57;101200.16;;;1.24;100.00
44988;BME280;35735;52.226;21.254;2023-01-28T18:07:57;101208.94;;;1.23;100.00
44988;BME280;35735;52.226;21.254;2023-01-28T18:12:58;101212.75;;;1.28;100.00
44988;BME280;35735;52.226;21.254;2023-01-28T18:17:59;101202.56;;;1.20;100.00
44988;BME280;35735;52.226;21.254;2023-01-28T18:23:00;101211.81;;;1.10;100.00
44988;BME280;35735;52.226;21.254;2023-01-28T18:28:06;101218.75;;;1.06;100.00
44988;BME280;35735;52.226;21.254;2023-01-28T18:33:07;101217.13;;;0.92;100.00
44988;BME280;35735;52.226;21.254;2023-01-28T18:38:07;101224.78;;;0.86;100.00
44988;BME280;35735;52.226;21.254;2023-01-28T18:43:08;101238.16;;;0.87;100.00
44988;BME280;35735;52.226;21.254;2023-01-28T18:48:09;101230.03;;;0.84;100.00
44988;BME280;35735;52.226;21.254;2023-01-28T18:53:09;101235.00;;;0.78;100.00
44988;BME280;35735;52.226;21.254;2023-01-28T18:58:10;101249.88;;;0.74;100.00
44988;BME280;35735;52.226;21.254;2023-01-28T19:03:10;101227.72;;;0.74;100.00
44988;BME280;35735;52.226;21.254;2023-01-28T19:08:14;101224.06;;;0.72;100.00
44988;BME280;35735;52.226;21.254;2023-01-28T19:13:14;101227.72;;;0.74;100.00
44988;BME280;35735;52.226;21.254;2023-01-28T19:18:15;101228.34;;;0.86;100.00
44988;BME280;35735;52.226;21.254;2023-01-28T19:23:16;101225.03;;;0.90;100.00
44988;BME280;35735;52.226;21.254;2023-01-28T19:28:18;101235.66;;;0.90;100.00
44988;BME280;35735;52.226;21.254;2023-01-28T19:33:19;101228.66;;;0.92;100.00
44988;BME280;35735;52.226;21.254;2023-01-28T19:38:23;101238.41;;;0.92;100.00
44988;BME280;35735;52.226;21.254;2023-01-28T19:43:26;101230.09;;;0.86;100.00
44988;BME280;35735;52.226;21.254;2023-01-28T19:48:27;101231.44;;;0.78;100.00
44988;BME280;35735;52.226;21.254;2023-01-28T19:53:27;101243.91;;;0.79;100.00
44988;BME280;35735;52.226;21.254;2023-01-28T19:58:32;101248.62;;;0.68;100.00
44988;BME280;35735;52.226;21.254;2023-01-28T20:03:34;101244.41;;;0.55;100.00
44988;BME280;35735;52.226;21.254;2023-01-28T20:08:35;101242.25;;;0.48;100.00
44988;BME280;35735;52.226;21.254;2023-01-28T20:13:37;101255.97;;;0.39;100.00
44988;BME280;35735;52.226;21.254;2023-01-28T20:18:38;101259.12;;;0.32;100.00
44988;BME280;35735;52.226;21.254;2023-01-28T20:23:39;101246.50;;;0.28;100.00
44988;BME280;35735;52.226;21.254;2023-01-28T20:28:39;101254.63;;;0.31;100.00
44988;BME280;35735;52.226;21.254;2023-01-28T20:33:40;101248.66;;;0.35;100.00
44988;BME280;35735;52.226;21.254;2023-01-28T20:38:43;101256.12;;;0.42;100.00
44988;BME280;35735;52.226;21.254;2023-01-28T20:43:45;101267.06;;;0.48;100.00
44988;BME280;35735;52.226;21.254;2023-01-28T20:48:47;101266.16;;;0.48;100.00
44988;BME280;35735;52.226;21.254;2023-01-28T20:53:52;101272.81;;;0.40;100.00
44988;BME280;35735;52.226;21.254;2023-01-28T20:58:55;101266.50;;;0.21;100.00
44988;BME280;35735;52.226;21.254;2023-01-28T21:03:57;101273.19;;;0.14;100.00
44988;BME280;35735;52.226;21.254;2023-01-28T21:08:59;101289.03;;;0.13;100.00
44988;BME280;35735;52.226;21.254;2023-01-28T21:14:00;101281.34;;;0.17;100.00
44988;BME280;35735;52.226;21.254;2023-01-28T21:19:01;101283.19;;;0.18;100.00
44988;BME280;35735;52.226;21.254;2023-01-28T21:24:03;101288.31;;;0.15;100.00
44988;BME280;35735;52.226;21.254;2023-01-28T21:29:04;101285.97;;;0.05;100.00
44988;BME280;35735;52.226;21.254;2023-01-28T21:34:05;101288.28;;;-0.01;100.00
44988;BME280;35735;52.226;21.254;2023-01-28T21:39:08;101272.84;;;-0.08;100.00
44988;BME280;35735;52.226;21.254;2023-01-28T21:44:11;101262.94;;;-0.11;100.00
44988;BME280;35735;52.226;21.254;2023-01-28T21:49:12;101251.94;;;-0.02;100.00
44988;BME280;35735;52.226;21.254;2023-01-28T21:54:15;101268.03;;;0.01;100.00
44988;BME280;35735;52.226;21.254;2023-01-28T21:59:18;101256.81;;;0.07;100.00
44988;BME280;35735;52.226;21.254;2023-01-28T22:04:22;101241.84;;;0.07;100.00
44988;BME280;35735;52.226;21.254;2023-01-28T22:09:26;101258.66;;;0.08;100.00
44988;BME280;35735;52.226;21.254;2023-01-28T22:14:28;101236.38;;;0.21;100.00
44988;BME280;35735;52.226;21.254;2023-01-28T22:19:29;101229.66;;;0.27;100.00
44988;BME280;35735;52.226;21.254;2023-01-28T22:24:30;101220.09;;;0.31;100.00
44988;BME280;35735;52.226;21.254;2023-01-28T22:29:30;101216.47;;;0.45;100.00
44988;BME280;35735;52.226;21.254;2023-01-28T22:34:31;101220.44;;;0.37;100.00
44988;BME280;35735;52.226;21.254;2023-01-28T22:39:31;101219.03;;;0.44;100.00
44988;BME280;35735;52.226;21.254;2023-01-28T22:44:35;101216.03;;;0.54;100.00
44988;BME280;35735;52.226;21.254;2023-01-28T22:49:35;101225.31;;;0.62;100.00
44988;BME280;35735;52.226;21.254;2023-01-28T22:54:36;101229.63;;;0.60;100.00
44988;BME280;35735;52.226;21.254;2023-01-28T22:59:37;101236.78;;;0.61;100.00
44988;BME280;35735;52.226;21.254;2023-01-28T23:04:37;101246.34;;;0.58;100.00
44988;BME280;35735;52.226;21.254;2023-01-28T23:09:38;101246.94;;;0.52;100.00
44988;BME280;35735;52.226;21.254;2023-01-28T23:14:39;101263.75;;;0.36;100.00
44988;BME280;35735;52.226;21.254;2023-01-28T23:19:40;101272.69;;;0.22;100.00
44988;BME280;35735;52.226;21.254;2023-01-28T23:24:40;101269.69;;;-0.01;100.00
44988;BME280;35735;52.226;21.254;2023-01-28T23:29:41;101258.91;;;-0.04;100.00
44988;BME280;35735;52.226;21.254;2023-01-28T23:34:42;101261.28;;;-0.09;100.00
44988;BME280;35735;52.226;21.254;2023-01-28T23:39:43;101254.19;;;-0.10;100.00
44988;BME280;35735;52.226;21.254;2023-01-28T23:44:44;101252.34;;;-0.11;100.00
44988;BME280;35735;52.226;21.254;2023-01-28T23:49:47;101240.63;;;-0.14;100.00
44988;BME280;35735;52.226;21.254;2023-01-28T23:54:50;101238.88;;;-0.14;100.00
44988;BME280;35735;52.226;21.254;2023-01-28T23:59:50;101240.16;;;-0.07;100.00
